Rizokarpason, Cyprus
Current Conditions -  °F | °C
As of 12:20 AM on Sunday 23 Nov 2014 (Local Time) from LCEN Reporting Station
Few Clouds Few Clouds  
Wind Chill: 52°   Ceiling: Unl
Heat Index: 52°   Visibility: 6mi
Dew Point: 39°   Wind: 7mph
Humidity: 62%   Direction: 280°W
Pressure: 29.97"   Gusts: NA
Location:  35.58°N, 34.4°E
Report Text: LCEN 222120Z 28006KT 9999 FEW030 11/04 Q1015 NOSIG
Loading
Personal Weather Stations






























Interactive Weather Map New forecast layout! Learn more

10-Day Weather Forecast

Advertisements
Track Severe Weather on mobile